LUK weather

Cincinnati Municipal Airport Lunken Field
Cincinnati, Ohio, United States

Public forecast

Using degrees Fahrenheit for public forecast. Weather courtesy of forecast.io.

METAR (pilot weather report)

Retrieved 2017/09/21 08:53 UTC (41 minutes ago):

KLUK 210853Z AUTO 00000KT 1/4SM R21L/1200V2000FT FG VV002 18/18 A3006 RMK AO2 SLP175 T01830183 $

TAF (pilot weather forecast)

Retrieved 2017/09/21 06:24 UTC (3 hours ago):

TAF KLUK 210523Z 2106/2206 00000KT 1/4SM FG VV002 FM211330 00000KT 2SM BR BKN005 FM211400 VRB03KT P6SM SCT250 FM211500 16004KT P6SM SCT040 BKN250 FM212300 VRB04KT P6SM SCT250 FM220400 00000KT 3SM BR SKC